Time;durP1;ratioP1;P1;durP2;ratioP2;P2;SDS_P1;SDS_P2;PMS_P1;PMS_P2;Temp;Humidity;BMP_temperature;BMP_pressure;BME280_temperature;BME280_humidity;BME280_pressure;Samples;Min_cycle;Max_cycle;Signal;HPM_P1;HPM_P2
2020/12/15 00:01:21;;;;;;;4.28;3.03;;;;;;;7.82;63.05;98343.25;5091641;28;20044;-69
2020/12/15 00:03:48;;;;;;;5.68;3.00;;;;;;;7.85;62.86;98341.09;5091511;28;20157;-71
2020/12/15 00:06:16;;;;;;;4.30;2.75;;;;;;;7.91;62.49;98334.25;5091741;28;20048;-69
2020/12/15 00:08:43;;;;;;;3.17;2.60;;;;;;;7.95;62.25;98336.31;5090221;28;20542;-69
2020/12/15 00:11:10;;;;;;;3.63;2.88;;;;;;;7.98;62.21;98336.97;5091553;28;20051;-69
2020/12/15 00:13:36;;;;;;;4.10;2.92;;;;;;;7.99;62.12;98349.91;5091335;28;20048;-69
2020/12/15 00:16:03;;;;;;;6.50;3.50;;;;;;;7.99;62.04;98351.75;5092087;28;20055;-69
2020/12/15 00:18:30;;;;;;;6.07;3.70;;;;;;;8.03;61.99;98351.19;5093844;28;20079;-70
2020/12/15 00:20:57;;;;;;;5.93;3.30;;;;;;;8.02;62.07;98344.28;5095119;28;20127;-69
2020/12/15 00:23:24;;;;;;;6.65;4.07;;;;;;;8.09;62.24;98349.63;5093398;28;20095;-68
2020/12/15 00:25:51;;;;;;;6.90;3.13;;;;;;;8.16;62.20;98358.38;5095007;28;20050;-68
2020/12/15 00:28:18;;;;;;;5.18;3.75;;;;;;;8.23;62.57;98354.00;5095023;28;20059;-69
2020/12/15 00:30:45;;;;;;;5.57;2.88;;;;;;;8.28;62.57;98351.63;5094849;28;20536;-68
2020/12/15 00:33:13;;;;;;;5.72;3.53;;;;;;;8.28;62.51;98356.06;5094758;28;20044;-68
2020/12/15 00:35:39;;;;;;;5.60;3.22;;;;;;;8.28;62.69;98356.06;5093311;28;20051;-68
2020/12/15 00:38:06;;;;;;;4.32;3.85;;;;;;;8.21;62.66;98349.94;5094517;28;20409;-69
2020/12/15 00:40:34;;;;;;;4.63;3.65;;;;;;;8.22;62.98;98351.56;5094739;28;20044;-69
2020/12/15 00:43:00;;;;;;;5.57;3.50;;;;;;;8.25;62.95;98352.00;5094511;28;20043;-67
2020/12/15 00:45:28;;;;;;;6.03;3.67;;;;;;;8.22;63.27;98359.47;5092973;28;20052;-67
2020/12/15 00:47:55;;;;;;;9.05;4.00;;;;;;;8.15;63.68;98365.47;5094570;28;20044;-67
2020/12/15 00:50:21;;;;;;;5.90;3.85;;;;;;;8.11;64.11;98361.59;5094489;28;20509;-67
2020/12/15 00:52:48;;;;;;;5.90;3.90;;;;;;;7.98;64.59;98366.72;5093158;28;20051;-67
2020/12/15 00:55:15;;;;;;;5.07;3.78;;;;;;;7.91;65.24;98371.91;5093977;28;20044;-68
2020/12/15 00:57:42;;;;;;;4.93;3.80;;;;;;;7.83;66.16;98374.66;5094186;28;20032;-67
2020/12/15 01:00:10;;;;;;;7.30;3.95;;;;;;;7.83;66.24;98374.66;5099159;28;20051;-66
2020/12/15 01:02:38;;;;;;;8.20;4.53;;;;;;;7.78;66.96;98378.84;5101225;28;20040;-66
2020/12/15 01:05:05;;;;;;;8.10;4.18;;;;;;;7.82;67.20;98380.91;5100948;28;20046;-67
2020/12/15 01:07:34;;;;;;;6.05;4.13;;;;;;;7.79;67.15;98381.28;5096834;28;20485;-67
2020/12/15 01:10:03;;;;;;;5.88;4.60;;;;;;;7.78;67.76;98376.22;5095289;28;20077;-67
2020/12/15 01:12:30;;;;;;;6.25;4.20;;;;;;;7.79;67.94;98391.00;5092618;28;20139;-67
2020/12/15 01:14:58;;;;;;;5.03;3.97;;;;;;;7.80;68.17;98384.75;5092734;28;20048;-68
2020/12/15 01:17:25;;;;;;;5.22;4.38;;;;;;;7.81;68.31;98379.28;5093947;28;20506;-67
2020/12/15 01:19:52;;;;;;;6.95;4.43;;;;;;;7.79;68.80;98378.66;5093801;28;20036;-67
2020/12/15 01:22:19;;;;;;;6.18;4.53;;;;;;;7.80;68.87;98385.56;5092534;28;20566;-67
2020/12/15 01:24:48;;;;;;;6.03;4.40;;;;;;;7.83;68.93;98373.84;5092068;28;20139;-67
2020/12/15 01:27:30;;;;;;;5.57;4.28;;;;;;;7.80;69.21;98367.16;5093496;28;20089;-67
2020/12/15 01:30:06;;;;;;;6.60;4.22;;;;;;;7.75;69.50;98363.41;5092652;28;20056;-67
2020/12/15 01:32:51;;;;;;;5.82;4.10;;;;;;;7.84;69.51;98365.78;5093764;28;20055;-66
2020/12/15 01:35:26;;;;;;;7.55;5.05;;;;;;;7.85;69.81;98364.75;5092025;28;20058;-65
2020/12/15 01:37:53;;;;;;;7.30;4.63;;;;;;;7.90;69.86;98364.22;5092170;28;20506;-65
2020/12/15 01:40:25;;;;;;;6.35;4.63;;;;;;;7.94;69.67;98370.72;5092387;28;20052;-66
2020/12/15 01:42:52;;;;;;;6.00;5.13;;;;;;;7.93;70.09;98369.09;5092195;28;20044;-66
2020/12/15 01:45:20;;;;;;;7.65;4.95;;;;;;;7.91;70.21;98365.81;5091732;28;20077;-66
2020/12/15 01:47:48;;;;;;;7.88;5.15;;;;;;;7.86;70.22;98365.56;5091988;28;20052;-67
2020/12/15 01:50:15;;;;;;;9.35;5.15;;;;;;;7.79;70.64;98372.56;5092047;28;20044;-66
2020/12/15 01:52:44;;;;;;;8.05;5.30;;;;;;;7.82;70.96;98367.75;5092001;28;20036;-66
2020/12/15 01:55:16;;;;;;;7.20;5.53;;;;;;;7.79;70.95;98362.06;5091640;28;20040;-66
2020/12/15 01:58:00;;;;;;;7.80;5.63;;;;;;;7.68;71.54;98360.72;5091918;28;20044;-67
2020/12/15 02:00:35;;;;;;;6.32;5.05;;;;;;;7.73;71.10;98363.63;5092076;28;20055;-66
2020/12/15 02:03:10;;;;;;;6.35;4.95;;;;;;;7.72;71.62;98354.09;5091874;28;20047;-67
2020/12/15 02:05:55;;;;;;;6.40;5.15;;;;;;;7.74;71.90;98354.72;5093348;28;20055;-67
2020/12/15 02:08:23;;;;;;;8.73;5.97;;;;;;;7.73;71.67;98358.34;5091631;28;20116;-67
2020/12/15 02:10:50;;;;;;;8.15;5.30;;;;;;;7.59;72.03;98344.25;5091723;28;20048;-67
2020/12/15 02:13:23;;;;;;;10.57;6.18;;;;;;;7.53;72.32;98341.53;5091456;28;20040;-67
2020/12/15 02:15:53;;;;;;;10.90;5.88;;;;;;;7.52;73.23;98343.34;5091475;28;20051;-67
2020/12/15 02:18:20;;;;;;;9.18;5.50;;;;;;;7.53;72.90;98344.97;5091564;28;20044;-67
2020/12/15 02:20:52;;;;;;;6.75;4.97;;;;;;;7.53;73.67;98339.72;5091545;28;20076;-67
2020/12/15 02:23:28;;;;;;;10.75;5.88;;;;;;;7.63;73.64;98342.03;5091317;28;20048;-67
2020/12/15 02:26:06;;;;;;;8.30;6.32;;;;;;;7.69;73.13;98339.50;5091484;28;20058;-67
2020/12/15 02:28:34;;;;;;;8.23;5.72;;;;;;;7.74;73.26;98338.94;5092612;28;20067;-67
2020/12/15 02:31:01;;;;;;;7.40;5.68;;;;;;;7.73;73.15;98342.56;5091282;28;20105;-67
2020/12/15 02:33:38;;;;;;;9.95;5.78;;;;;;;7.73;73.18;98337.31;5092374;28;20036;-67
2020/12/15 02:36:05;;;;;;;9.00;5.80;;;;;;;7.76;73.38;98336.94;5091162;28;20131;-67
2020/12/15 02:38:39;;;;;;;7.95;5.35;;;;;;;7.78;73.19;98328.84;5090473;28;20436;-66
2020/12/15 02:41:06;;;;;;;8.95;6.00;;;;;;;7.83;73.04;98329.09;5092448;28;20063;-67
2020/12/15 02:43:43;;;;;;;10.57;5.88;;;;;;;7.79;73.13;98326.03;5090882;28;20036;-66
2020/12/15 02:46:12;;;;;;;7.15;4.82;;;;;;;7.78;73.42;98326.22;5091012;28;20501;-67
2020/12/15 02:48:40;;;;;;;7.75;5.47;;;;;;;7.74;73.57;98323.13;5092365;28;20044;-66
2020/12/15 02:51:10;;;;;;;9.55;5.35;;;;;;;7.74;73.93;98322.34;5091027;28;20072;-67
2020/12/15 02:54:04;;;;;;;7.40;5.72;;;;;;;7.71;74.38;98320.88;5091025;28;20088;-67
2020/12/15 02:56:31;;;;;;;8.45;5.53;;;;;;;7.73;74.27;98315.44;5090891;28;20068;-66
2020/12/15 02:59:01;;;;;;;7.07;4.75;;;;;;;7.76;74.35;98318.53;5091064;28;20097;-66
2020/12/15 03:01:28;;;;;;;7.07;5.25;;;;;;;7.80;74.20;98316.34;5092486;28;20040;-66
2020/12/15 03:03:58;;;;;;;8.05;5.63;;;;;;;7.70;74.32;98317.44;5091855;28;20501;-66
2020/12/15 03:06:36;;;;;;;12.23;5.75;;;;;;;7.70;74.26;98320.06;5090963;28;20390;-67
2020/12/15 03:09:09;;;;;;;8.77;5.55;;;;;;;7.64;74.58;98328.72;5090896;28;20052;-67
2020/12/15 03:11:42;;;;;;;8.48;5.13;;;;;;;7.69;74.87;98320.25;5090815;28;20131;-68
2020/12/15 03:14:19;;;;;;;11.52;5.07;;;;;;;7.75;74.91;98316.88;5090822;28;20040;-68
2020/12/15 03:16:46;;;;;;;7.25;4.97;;;;;;;7.80;74.71;98313.72;5090858;28;20055;-67
2020/12/15 03:19:15;;;;;;;5.53;4.57;;;;;;;7.82;74.94;98317.75;5090695;28;20527;-67
2020/12/15 03:21:43;;;;;;;10.55;5.47;;;;;;;7.88;74.68;98324.13;5091377;28;20511;-68
2020/12/15 03:24:10;;;;;;;8.07;5.22;;;;;;;7.89;74.92;98317.84;5090627;28;20505;-68
2020/12/15 03:26:40;;;;;;;9.00;5.22;;;;;;;7.93;74.81;98317.28;5090817;28;20069;-67
2020/12/15 03:29:09;;;;;;;11.15;5.15;;;;;;;7.98;74.99;98313.28;5090646;28;20059;-68
2020/12/15 03:31:36;;;;;;;7.43;5.00;;;;;;;8.03;74.77;98310.88;5090737;28;20059;-68
2020/12/15 03:34:05;;;;;;;8.02;5.53;;;;;;;8.04;74.97;98315.97;5090274;28;20052;-67
2020/12/15 03:36:33;;;;;;;6.68;5.03;;;;;;;7.97;75.04;98309.00;5090842;28;20047;-67
2020/12/15 03:38:59;;;;;;;8.93;5.90;;;;;;;7.95;75.27;98303.91;5090847;28;20436;-68
2020/12/15 03:41:31;;;;;;;10.70;5.85;;;;;;;7.92;75.18;98306.94;5090902;28;20050;-67
2020/12/15 03:44:11;;;;;;;7.63;5.45;;;;;;;7.93;75.22;98300.69;5090395;28;20133;-67
2020/12/15 03:46:50;;;;;;;7.43;5.40;;;;;;;7.95;75.17;98309.19;5090999;28;20055;-67
2020/12/15 03:49:18;;;;;;;8.52;4.68;;;;;;;7.97;75.52;98307.19;5090902;28;20079;-67
2020/12/15 03:51:51;;;;;;;8.02;5.32;;;;;;;8.04;75.37;98309.88;5094794;28;20043;-67
2020/12/15 03:54:32;;;;;;;8.52;5.80;;;;;;;8.10;75.34;98311.75;5095663;28;20051;-67
2020/12/15 03:57:18;;;;;;;10.32;5.53;;;;;;;8.00;74.89;98303.34;5096036;28;20623;-68
2020/12/15 04:00:15;;;;;;;9.38;6.07;;;;;;;7.86;75.01;98307.69;5090481;28;20055;-68
2020/12/15 04:02:53;;;;;;;7.93;6.25;;;;;;;7.76;75.75;98305.38;5094781;28;20129;-68
2020/12/15 04:05:30;;;;;;;11.45;7.25;;;;;;;7.72;76.20;98303.31;5094024;28;20569;-67
2020/12/15 04:07:59;;;;;;;8.50;6.20;;;;;;;7.67;76.33;98304.66;5094166;28;20098;-67
2020/12/15 04:10:27;;;;;;;8.98;6.93;;;;;;;7.66;76.57;98304.84;5094249;28;20047;-67
2020/12/15 04:12:58;;;;;;;10.55;7.80;;;;;;;7.69;76.54;98300.03;5094416;28;20432;-68
2020/12/15 04:15:30;;;;;;;11.95;8.38;;;;;;;7.70;76.82;98300.84;5094197;28;20425;-68
2020/12/15 04:18:00;;;;;;;11.55;7.35;;;;;;;7.79;77.24;98309.44;5093930;28;20142;-66
2020/12/15 04:20:27;;;;;;;12.82;8.90;;;;;;;7.85;76.66;98309.50;5093802;28;20051;-67
2020/12/15 04:22:55;;;;;;;17.45;9.85;;;;;;;7.83;76.46;98303.59;5093709;28;20040;-66
2020/12/15 04:25:27;;;;;;;13.40;10.23;;;;;;;7.77;76.64;98304.34;5093299;28;20047;-68
2020/12/15 04:27:54;;;;;;;14.85;10.45;;;;;;;7.70;76.79;98293.75;5093548;28;20040;-66
2020/12/15 04:30:22;;;;;;;14.05;8.40;;;;;;;7.63;77.42;98300.78;5093631;28;20391;-66
2020/12/15 04:32:49;;;;;;;14.00;9.65;;;;;;;7.69;77.57;98297.41;5093626;28;20040;-66
2020/12/15 04:35:26;;;;;;;17.88;9.02;;;;;;;7.63;77.44;98292.88;5093325;28;20094;-67
2020/12/15 04:37:55;;;;;;;9.27;8.18;;;;;;;7.63;77.80;98289.41;5093484;28;20056;-67
2020/12/15 04:40:22;;;;;;;13.43;9.25;;;;;;;7.65;77.98;98288.25;5093520;28;20139;-68
2020/12/15 04:42:51;;;;;;;12.05;8.43;;;;;;;7.65;78.03;98290.06;5093296;28;20510;-67
2020/12/15 04:45:22;;;;;;;10.38;7.20;;;;;;;7.67;78.58;98291.53;5094413;28;20505;-66
2020/12/15 04:48:04;;;;;;;9.20;7.60;;;;;;;7.73;78.37;98291.75;5093313;28;20528;-66
2020/12/15 04:50:58;;;;;;;13.88;8.82;;;;;;;7.74;78.50;98288.94;5097320;28;20101;-67
2020/12/15 04:53:28;;;;;;;10.00;6.38;;;;;;;7.82;78.65;98295.91;5092979;28;20143;-67
2020/12/15 04:56:26;;;;;;;8.40;6.10;;;;;;;7.96;78.18;98292.41;5094536;28;20055;-67
2020/12/15 04:58:59;;;;;;;9.95;6.65;;;;;;;7.95;77.76;98294.19;5093102;28;20048;-67
2020/12/15 05:01:37;;;;;;;10.45;7.30;;;;;;;8.01;77.56;98290.03;5092222;28;20048;-67
2020/12/15 05:04:13;;;;;;;8.95;6.68;;;;;;;8.01;77.72;98297.09;5092684;28;20473;-67
2020/12/15 05:06:55;;;;;;;9.18;5.88;;;;;;;8.06;77.56;98297.34;5093145;28;20228;-67
2020/12/15 05:09:30;;;;;;;9.48;6.28;;;;;;;8.09;77.55;98302.25;5093167;28;20044;-67
2020/12/15 05:12:00;;;;;;;12.55;6.50;;;;;;;8.14;77.66;98294.59;5092733;28;20097;-66
2020/12/15 05:14:40;;;;;;;15.48;7.72;;;;;;;8.20;77.26;98299.06;5092608;28;20169;-67
2020/12/15 05:17:08;;;;;;;11.70;6.63;;;;;;;8.21;76.99;98299.91;5092871;28;20046;-67
2020/12/15 05:19:51;;;;;;;11.32;6.75;;;;;;;8.24;76.86;98294.25;5092765;28;20078;-67
2020/12/15 05:22:44;;;;;;;13.13;6.70;;;;;;;8.25;77.08;98301.16;5092871;28;20040;-66
2020/12/15 05:25:22;;;;;;;8.32;5.78;;;;;;;8.23;76.65;98290.81;5093485;28;20060;-68
2020/12/15 05:27:49;;;;;;;8.68;5.80;;;;;;;8.14;76.94;98299.84;5099372;28;20048;-66
2020/12/15 05:30:23;;;;;;;10.73;6.60;;;;;;;8.15;76.79;98302.28;5098406;28;20574;-67
2020/12/15 05:33:15;;;;;;;10.60;7.75;;;;;;;8.16;76.76;98301.31;5083071;28;20109;-67
2020/12/15 05:36:00;;;;;;;10.70;7.28;;;;;;;8.12;76.49;98297.41;5093896;28;20170;-66
2020/12/15 05:38:39;;;;;;;11.05;8.35;;;;;;;8.03;77.16;98297.72;5092311;28;20123;-67
2020/12/15 05:41:20;;;;;;;10.82;7.70;;;;;;;8.03;77.41;98302.97;5092201;28;20047;-68
2020/12/15 05:44:03;;;;;;;14.95;7.30;;;;;;;8.03;77.33;98297.72;5091778;28;20044;-66
2020/12/15 05:46:33;;;;;;;12.35;6.70;;;;;;;8.05;77.55;98293.09;5091977;28;20417;-66
2020/12/15 05:49:07;;;;;;;11.98;6.88;;;;;;;8.01;77.44;98297.91;5092109;28;20063;-67
2020/12/15 05:51:38;;;;;;;11.07;7.40;;;;;;;8.00;77.30;98298.94;5093008;28;20078;-67
2020/12/15 05:54:07;;;;;;;10.38;7.47;;;;;;;8.01;77.36;98297.09;5093512;28;20101;-68
2020/12/15 05:56:36;;;;;;;12.32;6.65;;;;;;;7.92;77.59;98301.69;5093238;28;20047;-67
2020/12/15 05:59:14;;;;;;;9.02;6.32;;;;;;;7.90;77.64;98308.94;5093237;28;20055;-66
2020/12/15 06:01:40;;;;;;;10.20;5.90;;;;;;;7.95;77.82;98310.00;5093267;28;20055;-67
2020/12/15 06:04:08;;;;;;;9.52;5.85;;;;;;;7.99;77.60;98307.81;5092759;28;20044;-67
2020/12/15 06:06:38;;;;;;;16.95;7.78;;;;;;;8.08;77.55;98305.84;5091856;28;20059;-67
2020/12/15 06:09:08;;;;;;;13.40;6.82;;;;;;;8.12;77.75;98309.75;5093063;28;20040;-67
2020/12/15 06:11:38;;;;;;;10.00;6.38;;;;;;;8.20;77.75;98301.72;5092012;28;20048;-66
2020/12/15 06:14:05;;;;;;;10.55;7.75;;;;;;;8.24;77.60;98295.06;5092543;28;20032;-67
2020/12/15 06:16:32;;;;;;;12.80;7.88;;;;;;;8.26;77.57;98287.00;5092651;28;20052;-68
2020/12/15 06:18:59;;;;;;;9.30;6.13;;;;;;;8.20;77.66;98288.56;5092789;28;20044;-66
2020/12/15 06:21:28;;;;;;;10.52;7.90;;;;;;;8.24;77.46;98289.00;5091642;28;20048;-68
2020/12/15 06:23:59;;;;;;;14.23;7.28;;;;;;;8.23;77.73;98285.53;5092825;28;20405;-66
2020/12/15 06:26:27;;;;;;;13.57;7.13;;;;;;;8.21;77.81;98284.94;5093300;28;20043;-68
2020/12/15 06:29:00;;;;;;;10.27;6.82;;;;;;;8.21;77.81;98281.50;5091262;28;20079;-66
2020/12/15 06:31:27;;;;;;;11.95;7.32;;;;;;;8.23;77.69;98282.91;5092630;28;20047;-68
2020/12/15 06:33:56;;;;;;;11.85;7.40;;;;;;;8.14;77.72;98271.69;5092074;28;20036;-67
2020/12/15 06:36:28;;;;;;;12.85;7.57;;;;;;;8.14;78.14;98278.78;5092618;28;20493;-67
2020/12/15 06:38:56;;;;;;;12.23;7.00;;;;;;;8.09;78.29;98284.63;5092867;28;20079;-67
2020/12/15 06:41:24;;;;;;;12.70;7.10;;;;;;;8.20;78.47;98280.66;5092319;28;20464;-67
2020/12/15 06:44:08;;;;;;;11.25;6.80;;;;;;;8.19;78.56;98279.84;5091814;28;20414;-67
2020/12/15 06:46:35;;;;;;;8.77;6.20;;;;;;;8.22;78.28;98280.47;5092231;28;20044;-67
2020/12/15 06:49:09;;;;;;;13.70;6.50;;;;;;;8.23;77.93;98272.38;5091028;28;20097;-67
2020/12/15 06:51:37;;;;;;;10.90;6.57;;;;;;;8.14;78.32;98274.34;5092391;28;20040;-67
2020/12/15 06:54:05;;;;;;;9.02;6.32;;;;;;;8.16;78.64;98276.78;5091685;28;20064;-69
2020/12/15 06:56:37;;;;;;;9.63;6.03;;;;;;;8.24;78.61;98275.81;5092198;28;20067;-67
2020/12/15 06:59:07;;;;;;;11.05;7.03;;;;;;;8.28;78.50;98277.06;5092489;28;20493;-66
2020/12/15 07:01:34;;;;;;;13.48;6.65;;;;;;;8.27;78.26;98278.09;5092105;28;20048;-67
2020/12/15 07:04:02;;;;;;;10.65;7.35;;;;;;;8.33;78.41;98286.03;5091766;28;20040;-67
2020/12/15 07:06:29;;;;;;;11.48;6.75;;;;;;;8.29;77.92;98290.06;5092001;28;20047;-67
2020/12/15 07:09:08;;;;;;;12.20;8.40;;;;;;;8.29;78.38;98286.63;5091939;28;20047;-67
2020/12/15 07:11:35;;;;;;;17.15;9.20;;;;;;;8.31;78.17;98289.88;5092137;28;20409;-68
2020/12/15 07:14:04;;;;;;;13.85;9.48;;;;;;;8.25;78.35;98288.81;5091711;28;20032;-67
2020/12/15 07:16:32;;;;;;;14.93;9.57;;;;;;;8.30;78.68;98296.97;5090796;28;20328;-67
2020/12/15 07:18:59;;;;;;;14.32;7.82;;;;;;;8.33;78.68;98298.41;5090633;28;20436;-67
2020/12/15 07:21:31;;;;;;;14.25;8.57;;;;;;;8.38;78.62;98294.22;5090706;28;20056;-68
2020/12/15 07:24:01;;;;;;;17.35;9.60;;;;;;;8.40;78.50;98302.72;5091572;28;20044;-68
2020/12/15 07:26:29;;;;;;;13.80;8.82;;;;;;;8.42;78.63;98307.81;5095371;28;20044;-68
2020/12/15 07:28:56;;;;;;;20.05;12.73;;;;;;;8.48;78.77;98306.22;5095989;28;20050;-68
2020/12/15 07:31:27;;;;;;;12.88;8.50;;;;;;;8.46;78.77;98310.88;5095850;28;20048;-67
2020/12/15 07:34:08;;;;;;;12.70;8.70;;;;;;;8.48;78.48;98301.78;5095943;28;20036;-68
2020/12/15 07:36:37;;;;;;;12.60;7.55;;;;;;;8.48;78.36;98306.22;5095935;28;20048;-67
2020/12/15 07:39:05;;;;;;;11.60;8.20;;;;;;;8.48;78.47;98311.50;5095773;28;20048;-67
2020/12/15 07:41:37;;;;;;;11.65;8.07;;;;;;;8.47;78.41;98313.31;5095742;28;20097;-67
2020/12/15 07:44:07;;;;;;;11.55;7.60;;;;;;;8.49;78.68;98315.75;5095331;28;20118;-68
2020/12/15 07:46:35;;;;;;;10.27;6.93;;;;;;;8.53;78.72;98309.09;5094593;28;20059;-68
2020/12/15 07:49:04;;;;;;;9.60;5.93;;;;;;;8.59;78.74;98319.69;5095691;28;20044;-68
2020/12/15 07:51:32;;;;;;;11.57;6.53;;;;;;;8.69;78.89;98324.63;5094363;28;20502;-68
2020/12/15 07:53:59;;;;;;;12.30;6.30;;;;;;;8.65;78.57;98323.38;5093997;28;20044;-67
2020/12/15 07:56:26;;;;;;;9.75;5.57;;;;;;;8.63;78.53;98326.22;5095472;28;20067;-68
2020/12/15 07:58:56;;;;;;;9.95;7.15;;;;;;;8.64;78.61;98327.03;5095548;28;20062;-67
2020/12/15 08:01:25;;;;;;;12.00;6.68;;;;;;;8.62;78.68;98326.41;5095762;28;20131;-68
2020/12/15 08:04:02;;;;;;;24.60;6.78;;;;;;;8.66;78.83;98328.47;5095101;28;20401;-67
2020/12/15 08:06:31;;;;;;;8.90;5.63;;;;;;;8.73;78.75;98331.13;5093909;28;20054;-67
2020/12/15 08:08:59;;;;;;;9.98;6.20;;;;;;;8.75;78.74;98331.78;5095215;28;20051;-67
2020/12/15 08:11:26;;;;;;;10.15;5.50;;;;;;;8.81;78.45;98332.81;5095405;28;20044;-67
2020/12/15 08:13:54;;;;;;;11.88;6.63;;;;;;;8.85;78.37;98336.69;5095077;28;20486;-68
2020/12/15 08:16:21;;;;;;;9.68;7.05;;;;;;;8.91;78.06;98334.13;5093971;28;20417;-67
2020/12/15 08:18:49;;;;;;;11.23;5.97;;;;;;;8.92;77.98;98340.19;5094094;28;20144;-68
2020/12/15 08:21:17;;;;;;;10.70;6.35;;;;;;;8.98;78.12;98338.59;5095377;28;20040;-67
2020/12/15 08:23:51;;;;;;;8.02;4.57;;;;;;;9.03;77.97;98337.03;5094968;28;20033;-68
2020/12/15 08:26:20;;;;;;;8.35;4.05;;;;;;;9.10;77.81;98345.81;5095180;28;20063;-67
2020/12/15 08:28:47;;;;;;;6.13;3.33;;;;;;;9.19;77.42;98354.38;5095061;28;20040;-68
2020/12/15 08:31:15;;;;;;;5.20;3.13;;;;;;;9.25;77.20;98347.50;5094948;28;20047;-67
2020/12/15 08:33:42;;;;;;;6.88;3.33;;;;;;;9.34;77.18;98348.94;5094408;28;20040;-67
2020/12/15 08:36:10;;;;;;;7.95;3.22;;;;;;;9.38;76.73;98345.72;5093951;28;20051;-69
2020/12/15 08:38:42;;;;;;;6.55;3.63;;;;;;;9.45;76.39;98351.03;5092802;28;20054;-68
2020/12/15 08:41:14;;;;;;;5.13;2.60;;;;;;;9.48;76.68;98355.13;5094705;28;20040;-67
2020/12/15 08:43:41;;;;;;;9.20;2.95;;;;;;;9.53;76.47;98358.78;5094601;28;20044;-67
2020/12/15 08:46:17;;;;;;;3.92;2.60;;;;;;;9.59;76.24;98358.00;5093281;28;20043;-67
2020/12/15 08:48:44;;;;;;;3.38;2.53;;;;;;;9.63;75.76;98361.03;5094620;28;20412;-67
2020/12/15 08:51:13;;;;;;;3.65;2.83;;;;;;;9.65;75.64;98356.41;5094450;28;20062;-67
2020/12/15 08:53:40;;;;;;;6.22;3.10;;;;;;;9.65;75.80;98357.22;5093997;28;20040;-67
2020/12/15 08:56:15;;;;;;;4.45;2.78;;;;;;;9.68;75.86;98367.38;5094240;28;20044;-67
2020/12/15 08:58:42;;;;;;;5.18;3.13;;;;;;;9.69;75.60;98365.56;5094877;28;20036;-67
2020/12/15 09:01:10;;;;;;;5.20;3.03;;;;;;;9.72;75.62;98372.28;5094283;28;20357;-67
2020/12/15 09:03:45;;;;;;;6.22;3.35;;;;;;;9.76;75.66;98368.22;5094024;28;20040;-67
2020/12/15 09:06:12;;;;;;;7.10;3.72;;;;;;;9.75;75.64;98361.28;5092640;28;20446;-68
2020/12/15 09:08:47;;;;;;;5.43;3.00;;;;;;;9.77;75.52;98370.66;5094181;28;20040;-67
2020/12/15 09:11:15;;;;;;;3.83;2.35;;;;;;;9.81;75.21;98368.44;5094608;28;20055;-67
2020/12/15 09:13:56;;;;;;;5.25;2.50;;;;;;;9.86;75.07;98374.75;5093600;28;20047;-68
2020/12/15 09:16:29;;;;;;;3.25;2.50;;;;;;;9.87;75.22;98379.00;5094041;28;20493;-67
2020/12/15 09:18:57;;;;;;;4.63;2.65;;;;;;;9.85;75.31;98381.03;5093976;28;20048;-68
2020/12/15 09:21:24;;;;;;;4.68;2.78;;;;;;;9.83;75.31;98385.69;5093864;28;20048;-67
2020/12/15 09:23:52;;;;;;;4.53;2.63;;;;;;;9.88;75.14;98388.56;5093636;28;20039;-67
2020/12/15 09:26:20;;;;;;;4.97;3.45;;;;;;;9.91;75.15;98388.16;5093892;28;20048;-67
2020/12/15 09:28:47;;;;;;;7.15;5.28;;;;;;;9.95;75.07;98387.75;5093802;28;20040;-67
2020/12/15 09:31:15;;;;;;;4.85;3.60;;;;;;;9.99;75.28;98397.72;5092519;28;20048;-67
2020/12/15 09:33:42;;;;;;;4.40;2.72;;;;;;;10.01;75.04;98387.00;5093325;28;20075;-67
2020/12/15 09:36:13;;;;;;;8.32;4.93;;;;;;;9.97;75.23;98396.31;5093613;28;20036;-67
2020/12/15 09:38:40;;;;;;;18.63;11.65;;;;;;;9.96;75.49;98399.94;5093436;28;20398;-67
2020/12/15 09:41:07;;;;;;;5.07;3.97;;;;;;;9.97;75.31;98398.97;5092302;28;20052;-67
2020/12/15 09:43:34;;;;;;;6.10;3.95;;;;;;;9.97;75.39;98391.03;5091960;28;20044;-67
2020/12/15 09:46:02;;;;;;;5.90;3.92;;;;;;;10.02;75.44;98391.25;5093411;28;20426;-68
2020/12/15 09:48:29;;;;;;;5.20;3.38;;;;;;;10.04;75.49;98399.78;5093149;28;20043;-67
2020/12/15 09:50:58;;;;;;;4.22;3.33;;;;;;;10.10;75.12;98391.06;5093378;28;20189;-67
2020/12/15 09:53:26;;;;;;;6.40;3.20;;;;;;;10.16;75.29;98392.91;5093620;28;20116;-67
2020/12/15 09:55:55;;;;;;;7.50;4.00;;;;;;;10.11;75.37;98395.31;5093007;28;20115;-67
2020/12/15 09:58:22;;;;;;;6.95;3.85;;;;;;;10.12;76.02;98392.50;5098299;28;20060;-66
2020/12/15 10:01:09;;;;;;;4.60;4.00;;;;;;;10.16;75.72;98409.59;5099213;28;20044;-68
2020/12/15 10:03:35;;;;;;;7.75;4.00;;;;;;;10.16;76.09;98406.09;5095617;28;20055;-67
2020/12/15 10:06:03;;;;;;;5.45;4.22;;;;;;;10.18;76.20;98404.09;5093086;28;20402;-68
2020/12/15 10:08:46;;;;;;;6.68;4.63;;;;;;;10.22;76.03;98407.97;5093082;28;20044;-67
2020/12/15 10:11:14;;;;;;;5.88;4.00;;;;;;;10.26;76.16;98403.13;5093029;28;20050;-69
2020/12/15 10:13:41;;;;;;;9.95;4.15;;;;;;;10.28;76.14;98404.53;5092661;28;20048;-68
2020/12/15 10:16:09;;;;;;;10.70;6.00;;;;;;;10.30;76.05;98412.28;5092882;28;20039;-67
2020/12/15 10:18:37;;;;;;;6.72;4.13;;;;;;;10.29;76.56;98408.81;5092908;28;20413;-67
2020/12/15 10:21:03;;;;;;;9.18;4.50;;;;;;;10.30;76.23;98407.00;5093164;28;20048;-67
2020/12/15 10:23:33;;;;;;;6.72;4.60;;;;;;;10.30;76.21;98413.09;5091613;28;20040;-67
2020/12/15 10:26:01;;;;;;;7.65;4.25;;;;;;;10.26;76.41;98419.78;5093534;28;20047;-67
2020/12/15 10:28:29;;;;;;;10.32;5.03;;;;;;;10.29;76.66;98421.22;5093301;28;20119;-68
2020/12/15 10:30:56;;;;;;;8.13;4.55;;;;;;;10.31;76.70;98420.00;5093235;28;20040;-67
2020/12/15 10:33:23;;;;;;;7.20;4.38;;;;;;;10.34;76.66;98416.16;5092769;28;20448;-67
2020/12/15 10:36:03;;;;;;;5.47;4.05;;;;;;;10.44;76.39;98408.63;5093197;28;20040;-67
2020/12/15 10:38:30;;;;;;;5.88;3.47;;;;;;;10.45;76.80;98407.63;5091882;28;20128;-66
2020/12/15 10:40:57;;;;;;;5.22;3.00;;;;;;;10.39;76.78;98411.06;5092789;28;20040;-68
2020/12/15 10:43:25;;;;;;;5.47;3.85;;;;;;;10.37;76.56;98408.66;5092372;28;20101;-69
2020/12/15 10:45:52;;;;;;;3.85;3.10;;;;;;;10.32;76.78;98408.41;5092426;28;20047;-67
2020/12/15 10:48:19;;;;;;;4.93;3.40;;;;;;;10.31;77.19;98411.25;5092458;28;20040;-66
2020/12/15 10:50:46;;;;;;;6.55;3.85;;;;;;;10.29;77.17;98410.66;5092371;28;20036;-67
2020/12/15 10:53:13;;;;;;;4.35;3.20;;;;;;;10.25;77.17;98409.44;5092774;28;20402;-66
2020/12/15 10:55:40;;;;;;;4.90;2.53;;;;;;;10.26;76.96;98411.06;5090848;28;20417;-66
2020/12/15 10:58:07;;;;;;;4.85;3.50;;;;;;;10.22;77.31;98413.25;5092403;28;20050;-66
2020/12/15 11:00:34;;;;;;;5.13;2.97;;;;;;;10.25;77.25;98410.25;5091814;28;20485;-66
2020/12/15 11:03:02;;;;;;;5.28;3.25;;;;;;;10.23;77.32;98411.41;5092396;28;20043;-67
2020/12/15 11:05:29;;;;;;;5.20;3.35;;;;;;;10.26;77.45;98403.13;5092317;28;20040;-67
2020/12/15 11:07:55;;;;;;;4.95;3.47;;;;;;;10.29;77.47;98410.66;5093441;28;20382;-67
2020/12/15 11:10:22;;;;;;;4.10;3.40;;;;;;;10.26;77.68;98411.06;5093317;28;20047;-67
2020/12/15 11:12:49;;;;;;;5.55;2.88;;;;;;;10.25;77.91;98420.81;5091622;28;20044;-67
2020/12/15 11:15:16;;;;;;;4.53;2.80;;;;;;;10.24;78.32;98413.84;5091248;28;20052;-66
2020/12/15 11:17:43;;;;;;;6.35;3.15;;;;;;;10.26;78.17;98411.88;5092598;28;20051;-68
2020/12/15 11:20:10;;;;;;;5.07;3.30;;;;;;;10.23;78.38;98408.78;5094806;28;20105;-66
2020/12/15 11:22:37;;;;;;;6.68;3.28;;;;;;;10.27;78.65;98423.25;5097089;28;20494;-67
2020/12/15 11:25:03;;;;;;;5.07;3.33;;;;;;;10.26;78.82;98411.06;5098949;28;20054;-67
2020/12/15 11:27:30;;;;;;;5.95;3.55;;;;;;;10.25;78.81;98414.72;5099642;28;20492;-66
2020/12/15 11:29:57;;;;;;;7.15;4.10;;;;;;;10.27;78.99;98416.13;5099470;28;20051;-66
2020/12/15 11:32:30;;;;;;;7.37;4.13;;;;;;;10.29;78.60;98413.31;5099941;28;20075;-66
2020/12/15 11:34:58;;;;;;;5.18;3.83;;;;;;;10.31;78.94;98425.28;5097685;28;20028;-67
2020/12/15 11:37:25;;;;;;;3.95;3.33;;;;;;;10.33;78.93;98419.81;5096903;28;20051;-67
2020/12/15 11:39:51;;;;;;;4.60;3.70;;;;;;;10.33;79.04;98415.34;5097039;28;20040;-66
2020/12/15 11:42:18;;;;;;;7.10;4.35;;;;;;;10.37;79.03;98415.75;5097058;28;20459;-66
2020/12/15 11:44:54;;;;;;;6.40;3.85;;;;;;;10.37;79.06;98415.75;5096951;28;20044;-67
2020/12/15 11:47:23;;;;;;;5.68;4.00;;;;;;;10.45;78.77;98409.44;5097833;28;20051;-66
2020/12/15 11:49:50;;;;;;;6.93;4.50;;;;;;;10.46;78.70;98400.53;5095701;28;20501;-67
2020/12/15 11:52:23;;;;;;;6.63;3.47;;;;;;;10.43;78.34;98403.56;5097662;28;20048;-66